Time;durP1;ratioP1;P1;durP2;ratioP2;P2;SDS_P1;SDS_P2;PMS_P1;PMS_P2;Temp;Humidity;BMP_temperature;BMP_pressure;BME280_temperature;BME280_humidity;BME280_pressure;Samples;Min_cycle;Max_cycle;Signal;HPM_P1;HPM_P2
2024/03/12 00:00:00;;;;;;;18.77;13.70;;;;;22.50;99776.00;;;;2044632;28;20222;-62
2024/03/12 00:01:08;;;;;;;20.10;13.10;;;;;22.50;99776.00;;;;2045444;28;20287;-59
2024/03/12 00:02:10;;;;;;;20.20;12.35;;;;;22.50;99774.00;;;;2053229;28;20473;-59
2024/03/12 00:03:11;;;;;;;18.73;12.95;;;;;22.50;99787.00;;;;2047370;28;20712;-58
2024/03/12 00:04:11;;;;;;;18.83;13.10;;;;;22.50;99783.00;;;;2035780;28;20307;-59
2024/03/12 00:05:13;;;;;;;19.03;12.33;;;;;22.50;99781.00;;;;2044963;28;20751;-58
2024/03/12 00:06:13;;;;;;;19.17;13.60;;;;;22.50;99802.00;;;;2053309;28;20293;-58
2024/03/12 00:07:16;;;;;;;17.03;12.20;;;;;22.50;99794.00;;;;2052787;28;20875;-58
2024/03/12 00:08:17;;;;;;;21.00;13.43;;;;;22.50;99793.00;;;;2061650;28;20222;-59
2024/03/12 00:09:17;;;;;;;16.97;12.20;;;;;22.50;99779.00;;;;2056983;28;20229;-59
2024/03/12 00:10:19;;;;;;;16.33;11.90;;;;;22.50;99788.00;;;;2062447;28;20250;-59
2024/03/12 00:11:20;;;;;;;21.35;13.43;;;;;22.40;99788.00;;;;2061742;28;20305;-60
2024/03/12 00:12:22;;;;;;;21.10;13.67;;;;;22.50;99783.00;;;;2060166;28;20223;-59
2024/03/12 00:13:23;;;;;;;20.65;11.85;;;;;22.50;99796.00;;;;2062931;28;20237;-58
2024/03/12 00:14:23;;;;;;;17.40;11.83;;;;;22.40;99794.00;;;;2055024;28;20219;-59
2024/03/12 00:15:24;;;;;;;15.50;10.83;;;;;22.50;99793.00;;;;2059203;28;20226;-59
2024/03/12 00:16:24;;;;;;;16.40;11.67;;;;;22.40;99800.00;;;;2053725;28;20727;-58
2024/03/12 00:17:24;;;;;;;20.53;11.90;;;;;22.40;99799.00;;;;2054016;28;20219;-58
2024/03/12 00:18:25;;;;;;;15.20;11.27;;;;;22.50;99811.00;;;;2053467;28;20211;-58
2024/03/12 00:19:26;;;;;;;16.50;11.67;;;;;22.40;99805.00;;;;2043403;28;20317;-60
2024/03/12 00:20:29;;;;;;;16.60;11.02;;;;;22.40;99811.00;;;;2053881;28;20222;-58
2024/03/12 00:21:30;;;;;;;19.73;11.57;;;;;22.40;99809.00;;;;2053636;28;21307;-58
2024/03/12 00:22:30;;;;;;;19.33;12.03;;;;;22.50;99812.00;;;;2054366;28;20282;-59
2024/03/12 00:23:31;;;;;;;17.17;11.70;;;;;22.40;99813.00;;;;2053660;28;20219;-58
2024/03/12 00:24:31;;;;;;;15.83;11.30;;;;;22.40;99812.00;;;;2042214;28;20595;-58
2024/03/12 00:25:31;;;;;;;17.33;11.60;;;;;22.40;99817.00;;;;2053166;28;20687;-59
2024/03/12 00:26:32;;;;;;;18.87;12.00;;;;;22.40;99781.00;;;;2056129;28;20220;-59
2024/03/12 00:27:33;;;;;;;16.30;10.60;;;;;22.40;99813.00;;;;2045459;28;20236;-63
2024/03/12 00:28:34;;;;;;;15.53;11.10;;;;;22.40;99820.00;;;;2052188;28;20499;-58
2024/03/12 00:29:34;;;;;;;16.07;10.60;;;;;22.40;99817.00;;;;2049668;28;20227;-57
2024/03/12 00:30:34;;;;;;;16.43;10.50;;;;;22.40;99818.00;;;;2061215;28;20285;-57
2024/03/12 00:31:35;;;;;;;17.57;10.33;;;;;22.40;99833.00;;;;2057281;28;20675;-63
2024/03/12 00:32:36;;;;;;;14.10;9.30;;;;;22.40;99821.00;;;;2056044;28;20239;-57
2024/03/12 00:33:37;;;;;;;15.80;10.30;;;;;22.40;99822.00;;;;2060082;28;20281;-64
2024/03/12 00:34:37;;;;;;;15.63;10.33;;;;;22.40;99821.00;;;;2052950;28;20887;-61
2024/03/12 00:35:42;;;;;;;16.23;10.17;;;;;22.40;99820.00;;;;2054457;28;20917;-59
2024/03/12 00:36:43;;;;;;;14.00;10.43;;;;;22.40;99817.00;;;;2053228;28;20220;-59
2024/03/12 00:37:47;;;;;;;13.95;9.40;;;;;22.40;99821.00;;;;2048009;28;20224;-59
2024/03/12 00:38:47;;;;;;;17.75;11.30;;;;;22.40;99821.00;;;;2053218;28;20720;-61
2024/03/12 00:39:47;;;;;;;12.60;9.27;;;;;22.30;99824.00;;;;2044119;28;20274;-60
2024/03/12 00:40:50;;;;;;;17.40;11.57;;;;;22.30;99812.00;;;;2052794;28;20333;-58
2024/03/12 00:41:50;;;;;;;14.93;9.50;;;;;22.30;99818.00;;;;2052999;28;20227;-61
2024/03/12 00:42:51;;;;;;;13.93;9.50;;;;;22.40;99823.00;;;;2040313;28;20255;-64
2024/03/12 00:43:52;;;;;;;14.70;10.50;;;;;22.40;99824.00;;;;2060873;28;20225;-61
2024/03/12 00:44:52;;;;;;;12.98;9.75;;;;;22.30;99835.00;;;;2036308;28;20223;-60
2024/03/12 00:45:53;;;;;;;16.10;9.63;;;;;22.30;99828.00;;;;2054580;28;20222;-60
2024/03/12 00:46:54;;;;;;;16.50;10.30;;;;;22.30;99820.00;;;;2057672;28;20227;-60
2024/03/12 00:47:54;;;;;;;14.47;9.47;;;;;22.30;99825.00;;;;2050702;28;20211;-60
2024/03/12 00:48:54;;;;;;;14.47;9.30;;;;;22.30;99826.00;;;;2053609;28;20451;-60
2024/03/12 00:49:55;;;;;;;13.80;9.67;;;;;22.30;99838.00;;;;2044348;28;20232;-58
2024/03/12 00:50:56;;;;;;;13.23;9.60;;;;;22.30;99828.00;;;;2051229;28;20207;-63
2024/03/12 00:51:56;;;;;;;13.40;9.10;;;;;22.30;99833.00;;;;2052814;28;20459;-59
2024/03/12 00:52:57;;;;;;;15.00;9.70;;;;;22.30;99835.00;;;;2044147;28;20239;-57
2024/03/12 00:53:58;;;;;;;14.73;8.80;;;;;22.30;99845.00;;;;2050626;28;20216;-59
2024/03/12 00:54:58;;;;;;;13.48;9.18;;;;;22.30;99839.00;;;;2044654;28;20240;-64
2024/03/12 00:55:58;;;;;;;12.83;8.87;;;;;22.30;99837.00;;;;2059851;28;20219;-60
2024/03/12 00:56:59;;;;;;;13.30;9.33;;;;;22.30;99837.00;;;;2053513;28;20223;-63
2024/03/12 00:57:59;;;;;;;12.57;8.57;;;;;22.30;99835.00;;;;2052004;28;20253;-62
2024/03/12 00:58:59;;;;;;;13.23;8.90;;;;;22.30;99840.00;;;;2050862;28;20223;-63
2024/03/12 01:00:01;;;;;;;12.80;9.03;;;;;22.30;99829.00;;;;2043437;28;20230;-62
2024/03/12 01:01:03;;;;;;;13.15;8.73;;;;;22.30;99837.00;;;;2052912;28;20224;-57
2024/03/12 01:02:04;;;;;;;12.15;8.40;;;;;22.30;99849.00;;;;2051080;28;20226;-58
2024/03/12 01:03:08;;;;;;;13.67;8.90;;;;;22.30;99833.00;;;;2057572;28;20725;-62
2024/03/12 01:04:08;;;;;;;13.07;9.40;;;;;22.30;99840.00;;;;2040266;28;20459;-58
2024/03/12 01:05:10;;;;;;;12.10;8.40;;;;;22.30;99844.00;;;;2051833;28;20219;-62
2024/03/12 01:06:11;;;;;;;13.20;9.35;;;;;22.30;99843.00;;;;2052846;28;20281;-58
2024/03/12 01:07:12;;;;;;;11.93;8.32;;;;;22.30;99843.00;;;;2052793;28;20216;-58
2024/03/12 01:08:12;;;;;;;13.53;8.60;;;;;22.30;99839.00;;;;2053289;28;20273;-58
2024/03/12 01:09:13;;;;;;;12.13;9.10;;;;;22.30;99842.00;;;;2043498;28;20691;-63
2024/03/12 01:10:14;;;;;;;11.73;7.53;;;;;22.30;99839.00;;;;2053596;28;20218;-59
2024/03/12 01:11:14;;;;;;;13.07;9.20;;;;;22.30;99846.00;;;;2052566;28;20720;-58
2024/03/12 01:12:15;;;;;;;11.37;8.60;;;;;21.70;99843.00;;;;2055145;28;20200;-58
2024/03/12 01:13:16;;;;;;;11.57;8.13;;;;;22.30;99852.00;;;;2053272;28;20203;-59
2024/03/12 01:14:17;;;;;;;14.13;9.20;;;;;22.20;99871.00;;;;2043839;28;20471;-59
2024/03/12 01:15:18;;;;;;;11.85;8.20;;;;;22.30;99853.00;;;;2051229;28;20285;-59
2024/03/12 01:16:18;;;;;;;11.50;8.00;;;;;22.30;99854.00;;;;2052512;28;20279;-59
2024/03/12 01:17:20;;;;;;;12.00;9.00;;;;;22.30;99856.00;;;;2057763;28;20455;-60
2024/03/12 01:18:21;;;;;;;11.50;7.80;;;;;22.30;99852.00;;;;2049839;28;20227;-59
2024/03/12 01:19:21;;;;;;;11.60;8.50;;;;;22.20;99856.00;;;;2047462;28;20735;-59
2024/03/12 01:20:24;;;;;;;12.10;8.37;;;;;22.20;99853.00;;;;2061123;28;20253;-59
2024/03/12 01:21:25;;;;;;;13.40;8.20;;;;;22.20;99854.00;;;;2057911;28;20219;-59
2024/03/12 01:22:25;;;;;;;11.93;7.33;;;;;22.30;99854.00;;;;2053539;28;20212;-60
2024/03/12 01:23:26;;;;;;;10.60;7.53;;;;;22.20;99846.00;;;;2054158;28;20239;-59
2024/03/12 01:24:27;;;;;;;10.13;7.85;;;;;22.20;99840.00;;;;2047484;28;20232;-58
2024/03/12 01:25:29;;;;;;;12.13;8.50;;;;;22.20;99853.00;;;;2052631;28;20243;-62
2024/03/12 01:26:30;;;;;;;11.07;7.95;;;;;22.20;99862.00;;;;2051647;28;20251;-59
2024/03/12 01:27:33;;;;;;;12.10;8.10;;;;;22.20;99854.00;;;;2054920;28;20312;-59
2024/03/12 01:28:34;;;;;;;12.02;7.72;;;;;22.20;99856.00;;;;2052866;28;20226;-59
2024/03/12 01:29:35;;;;;;;11.25;8.00;;;;;22.20;99855.00;;;;2043453;28;20224;-59
2024/03/12 01:30:36;;;;;;;11.13;7.60;;;;;22.20;99856.00;;;;2051672;28;20274;-59
2024/03/12 01:31:36;;;;;;;12.60;7.97;;;;;22.20;99856.00;;;;2051224;28;20208;-59
2024/03/12 01:32:38;;;;;;;9.97;7.33;;;;;22.20;99860.00;;;;2052990;28;20574;-59
2024/03/12 01:33:39;;;;;;;12.05;7.97;;;;;22.20;99864.00;;;;2052676;28;20220;-59
2024/03/12 01:34:42;;;;;;;12.63;7.75;;;;;22.20;99873.00;;;;2043414;28;20734;-59
2024/03/12 01:35:46;;;;;;;11.68;7.70;;;;;22.20;99864.00;;;;2051939;28;20696;-58
2024/03/12 01:36:47;;;;;;;10.55;7.18;;;;;22.20;99890.00;;;;2044715;28;20578;-58
2024/03/12 01:37:49;;;;;;;9.60;6.90;;;;;22.20;99870.00;;;;2045458;28;20262;-59
2024/03/12 01:38:54;;;;;;;12.98;8.20;;;;;22.20;99871.00;;;;2053670;28;20719;-58
2024/03/12 01:39:54;;;;;;;10.75;7.28;;;;;22.20;99869.00;;;;2042676;28;20224;-58
2024/03/12 01:40:55;;;;;;;9.60;6.73;;;;;22.20;99870.00;;;;2053019;28;20224;-59
2024/03/12 01:41:55;;;;;;;9.10;6.50;;;;;22.20;99868.00;;;;2058442;28;20215;-58
2024/03/12 01:42:57;;;;;;;14.00;7.73;;;;;22.20;99874.00;;;;2045645;28;20326;-59
2024/03/12 01:44:02;;;;;;;10.00;7.32;;;;;22.20;99868.00;;;;2044590;28;21029;-58
2024/03/12 01:45:05;;;;;;;10.63;7.10;;;;;22.20;99871.00;;;;2051443;28;20211;-58
2024/03/12 01:46:07;;;;;;;9.13;6.55;;;;;22.20;99876.00;;;;2052571;28;20565;-58
2024/03/12 01:47:08;;;;;;;10.80;7.53;;;;;22.20;99874.00;;;;2053701;28;20376;-60
2024/03/12 01:48:09;;;;;;;11.02;7.57;;;;;22.20;99864.00;;;;2064496;28;20213;-63
2024/03/12 01:49:10;;;;;;;9.80;7.00;;;;;22.10;99867.00;;;;2042149;28;20383;-59
2024/03/12 01:50:10;;;;;;;10.77;7.20;;;;;22.20;99876.00;;;;2045612;28;20803;-59
2024/03/12 01:51:12;;;;;;;12.47;7.43;;;;;22.10;99865.00;;;;2044560;28;20301;-59
2024/03/12 01:52:13;;;;;;;12.30;7.10;;;;;22.10;99876.00;;;;2034000;28;20212;-59
2024/03/12 01:53:13;;;;;;;9.40;6.57;;;;;22.10;99872.00;;;;2037640;28;20205;-58
2024/03/12 01:54:14;;;;;;;9.27;6.70;;;;;22.20;99878.00;;;;2041819;28;20219;-58
2024/03/12 01:55:18;;;;;;;10.00;6.60;;;;;22.10;99834.00;;;;2056227;28;20724;-56
2024/03/12 01:56:18;;;;;;;8.95;6.45;;;;;22.10;99866.00;;;;2059795;28;20289;-58
2024/03/12 01:57:20;;;;;;;10.67;7.17;;;;;22.10;99879.00;;;;2058754;28;20218;-59
2024/03/12 01:58:22;;;;;;;10.68;6.75;;;;;22.20;99878.00;;;;2057120;28;20242;-58
2024/03/12 01:59:22;;;;;;;9.43;6.88;;;;;22.20;99879.00;;;;2043018;28;20223;-58
2024/03/12 02:00:25;;;;;;;8.90;6.50;;;;;22.20;99880.00;;;;2054444;28;20990;-59
2024/03/12 02:01:25;;;;;;;12.30;7.35;;;;;22.10;99884.00;;;;2057271;28;20680;-59
2024/03/12 02:02:28;;;;;;;9.47;6.97;;;;;22.10;99874.00;;;;2069220;28;20248;-60
2024/03/12 02:03:34;;;;;;;10.43;7.50;;;;;22.10;99872.00;;;;2063523;28;20226;-58
2024/03/12 02:04:35;;;;;;;9.82;6.80;;;;;22.10;99874.00;;;;2024781;28;20637;-59
2024/03/12 02:05:36;;;;;;;10.40;7.03;;;;;22.10;99881.00;;;;2052084;28;20219;-59
2024/03/12 02:06:36;;;;;;;11.30;7.60;;;;;22.10;99880.00;;;;2056441;28;20466;-58
2024/03/12 02:07:47;;;;;;;9.50;7.00;;;;;22.10;99883.00;;;;2056850;28;20224;-59
2024/03/12 02:08:51;;;;;;;11.05;6.97;;;;;22.10;99881.00;;;;2047325;28;20224;-59
2024/03/12 02:09:52;;;;;;;9.40;7.05;;;;;22.10;99910.00;;;;2033931;28;20246;-59
2024/03/12 02:10:52;;;;;;;9.70;7.27;;;;;22.10;99893.00;;;;2044251;28;20704;-59
2024/03/12 02:11:52;;;;;;;9.77;6.60;;;;;22.10;99889.00;;;;2036173;28;20598;-59
2024/03/12 02:12:53;;;;;;;11.47;7.97;;;;;22.10;99873.00;;;;2051905;28;20595;-59
2024/03/12 02:13:54;;;;;;;9.50;6.53;;;;;22.10;99882.00;;;;2052430;28;20242;-59
2024/03/12 02:14:54;;;;;;;10.40;7.33;;;;;22.10;99885.00;;;;2042298;28;20227;-58
2024/03/12 02:15:56;;;;;;;9.63;6.63;;;;;22.10;99892.00;;;;2049512;28;20286;-59
2024/03/12 02:16:56;;;;;;;9.38;6.30;;;;;22.10;99883.00;;;;2052885;28;20223;-58
2024/03/12 02:17:56;;;;;;;9.80;6.90;;;;;22.10;99886.00;;;;2051696;28;20230;-58
2024/03/12 02:18:57;;;;;;;10.47;6.87;;;;;22.10;99894.00;;;;2051909;28;20220;-59
2024/03/12 02:19:58;;;;;;;9.13;6.93;;;;;22.10;99894.00;;;;2040158;28;20220;-58
2024/03/12 02:20:58;;;;;;;10.57;7.15;;;;;22.10;99889.00;;;;2042177;28;20232;-59
2024/03/12 02:21:59;;;;;;;9.07;6.67;;;;;22.10;99878.00;;;;2036597;28;20228;-59
2024/03/12 02:22:59;;;;;;;12.03;7.87;;;;;22.10;99891.00;;;;2051822;28;22367;-59
2024/03/12 02:24:00;;;;;;;10.70;6.97;;;;;22.10;99892.00;;;;2044138;28;20228;-58
2024/03/12 02:25:00;;;;;;;10.57;7.20;;;;;22.10;99890.00;;;;2032716;28;20231;-59
2024/03/12 02:26:01;;;;;;;10.50;6.87;;;;;21.90;99890.00;;;;2050750;28;20221;-59
2024/03/12 02:27:02;;;;;;;8.10;6.20;;;;;21.90;99886.00;;;;2052677;28;20222;-59
2024/03/12 02:28:02;;;;;;;10.37;7.60;;;;;22.00;99889.00;;;;2056532;28;20462;-58
2024/03/12 02:29:03;;;;;;;9.57;6.50;;;;;22.00;99885.00;;;;2042178;28;20219;-62
2024/03/12 02:30:04;;;;;;;7.75;6.25;;;;;22.00;99891.00;;;;2050484;28;20246;-58
2024/03/12 02:31:05;;;;;;;8.82;6.38;;;;;22.10;99921.00;;;;2050522;28;20215;-59
2024/03/12 02:32:06;;;;;;;10.00;6.88;;;;;22.10;99900.00;;;;2053495;28;20211;-59
2024/03/12 02:33:06;;;;;;;11.90;6.40;;;;;22.10;99903.00;;;;2058990;28;20203;-59
2024/03/12 02:34:06;;;;;;;8.77;6.40;;;;;22.00;99893.00;;;;2042886;28;20216;-59
2024/03/12 02:35:11;;;;;;;10.07;7.03;;;;;22.00;99895.00;;;;2059183;28;20211;-59
2024/03/12 02:36:11;;;;;;;10.35;6.47;;;;;22.00;99900.00;;;;2047147;28;21071;-64
2024/03/12 02:37:12;;;;;;;12.70;7.67;;;;;22.00;99901.00;;;;2051356;28;20216;-60
2024/03/12 02:38:12;;;;;;;8.93;6.43;;;;;22.10;99898.00;;;;2057171;28;20222;-57
2024/03/12 02:39:14;;;;;;;8.83;6.50;;;;;22.10;99908.00;;;;2039401;28;20300;-58
2024/03/12 02:40:14;;;;;;;10.35;6.75;;;;;22.00;99897.00;;;;2063784;28;20229;-59
2024/03/12 02:41:15;;;;;;;10.63;6.70;;;;;22.00;99901.00;;;;2064995;28;20210;-58
2024/03/12 02:42:15;;;;;;;9.60;6.70;;;;;22.00;99897.00;;;;2047329;28;20942;-61
2024/03/12 02:43:16;;;;;;;9.50;6.83;;;;;22.00;99978.00;;;;2046410;28;20267;-59
2024/03/12 02:44:17;;;;;;;9.90;7.00;;;;;22.00;99904.00;;;;2041894;28;20266;-63
2024/03/12 02:45:20;;;;;;;10.52;7.10;;;;;22.00;99903.00;;;;2054291;28;20315;-57
2024/03/12 02:46:21;;;;;;;9.75;6.72;;;;;22.00;99898.00;;;;2052852;28;20215;-60
2024/03/12 02:47:21;;;;;;;9.40;6.37;;;;;22.00;99914.00;;;;2050460;28;20214;-58
2024/03/12 02:48:21;;;;;;;8.27;6.10;;;;;22.00;99905.00;;;;2047086;28;20462;-60
2024/03/12 02:49:23;;;;;;;8.87;6.17;;;;;22.00;99913.00;;;;2044322;28;20219;-57
2024/03/12 02:50:24;;;;;;;9.95;6.45;;;;;22.00;99913.00;;;;2056232;28;20215;-58
2024/03/12 02:51:26;;;;;;;10.85;6.50;;;;;22.00;99906.00;;;;2048715;28;20583;-63
2024/03/12 02:52:26;;;;;;;9.25;6.43;;;;;22.00;99914.00;;;;2056004;28;20314;-57
2024/03/12 02:53:27;;;;;;;8.40;6.13;;;;;22.00;99906.00;;;;2048559;28;20215;-58
2024/03/12 02:54:27;;;;;;;8.53;6.47;;;;;22.00;99910.00;;;;2044390;28;20219;-58
2024/03/12 02:55:28;;;;;;;10.07;6.63;;;;;22.00;99911.00;;;;2058600;28;20250;-59
2024/03/12 02:56:28;;;;;;;9.40;6.43;;;;;22.00;99913.00;;;;2057833;28;20226;-60
2024/03/12 02:57:28;;;;;;;8.27;6.10;;;;;22.00;99910.00;;;;2056966;28;20223;-58
2024/03/12 02:58:29;;;;;;;11.27;7.20;;;;;22.00;99913.00;;;;2049576;28;20220;-64
2024/03/12 02:59:30;;;;;;;9.63;6.33;;;;;22.00;99906.00;;;;2039997;28;20306;-59
2024/03/12 03:00:31;;;;;;;10.20;6.95;;;;;22.00;99910.00;;;;2039635;28;20231;-59
2024/03/12 03:01:31;;;;;;;8.35;6.47;;;;;22.00;99904.00;;;;2057012;28;20230;-59
2024/03/12 03:02:33;;;;;;;9.00;6.20;;;;;22.00;99915.00;;;;2051720;28;20223;-59
2024/03/12 03:03:33;;;;;;;11.45;7.40;;;;;22.00;99920.00;;;;2051205;28;20215;-64
2024/03/12 03:04:36;;;;;;;9.13;6.17;;;;;22.00;99917.00;;;;2045518;28;20220;-59
2024/03/12 03:05:36;;;;;;;10.82;7.15;;;;;22.00;99912.00;;;;2048744;28;20978;-62
2024/03/12 03:06:37;;;;;;;8.27;6.00;;;;;22.00;99922.00;;;;2054754;28;20224;-60
2024/03/12 03:07:40;;;;;;;10.53;7.30;;;;;22.00;99915.00;;;;2047565;28;20224;-62
2024/03/12 03:08:40;;;;;;;9.18;6.03;;;;;22.00;99921.00;;;;2052739;28;20294;-61
2024/03/12 03:09:40;;;;;;;9.70;6.70;;;;;22.00;99912.00;;;;2030412;28;20232;-58
2024/03/12 03:10:41;;;;;;;9.27;6.40;;;;;21.90;99911.00;;;;2048985;28;20233;-59
2024/03/12 03:11:41;;;;;;;9.03;7.00;;;;;21.90;99913.00;;;;2046557;28;20228;-58
2024/03/12 03:12:42;;;;;;;9.30;6.50;;;;;22.00;99930.00;;;;2048808;28;20215;-62
2024/03/12 03:13:42;;;;;;;8.30;6.40;;;;;21.90;99920.00;;;;2043124;28;20227;-61
2024/03/12 03:14:42;;;;;;;10.20;6.97;;;;;22.00;99916.00;;;;2038856;28;20234;-58
2024/03/12 03:15:45;;;;;;;9.53;6.33;;;;;21.90;99920.00;;;;2039305;28;20225;-58
2024/03/12 03:16:48;;;;;;;8.98;6.53;;;;;21.90;99926.00;;;;2039985;28;20775;-62
2024/03/12 03:17:48;;;;;;;11.00;7.57;;;;;22.00;99915.00;;;;2048650;28;20606;-60
2024/03/12 03:18:49;;;;;;;9.40;7.10;;;;;21.90;99931.00;;;;2048817;28;20231;-61
2024/03/12 03:19:49;;;;;;;9.67;7.10;;;;;21.90;99752.00;;;;2040246;28;20231;-60
2024/03/12 03:20:49;;;;;;;11.90;7.70;;;;;21.90;99916.00;;;;2052083;28;20670;-59
2024/03/12 03:21:50;;;;;;;9.33;7.20;;;;;21.90;99911.00;;;;2050881;28;20227;-58
2024/03/12 03:22:50;;;;;;;10.40;7.10;;;;;21.90;99909.00;;;;2050004;28;20318;-63
2024/03/12 03:23:51;;;;;;;10.77;7.07;;;;;21.90;99914.00;;;;2036948;28;20311;-61
2024/03/12 03:24:51;;;;;;;9.63;7.33;;;;;21.90;99918.00;;;;2037322;28;20224;-59
2024/03/12 03:25:51;;;;;;;9.80;7.50;;;;;21.90;99926.00;;;;2046696;28;20227;-58
2024/03/12 03:26:52;;;;;;;8.80;6.80;;;;;21.90;99924.00;;;;2043622;28;20282;-57
2024/03/12 03:27:53;;;;;;;9.50;6.90;;;;;21.90;99917.00;;;;2056205;28;20222;-57
2024/03/12 03:28:53;;;;;;;9.40;6.60;;;;;21.90;99921.00;;;;2049282;28;20299;-58
2024/03/12 03:29:56;;;;;;;8.93;6.63;;;;;21.90;99918.00;;;;2038108;28;20503;-58
2024/03/12 03:30:59;;;;;;;10.00;6.93;;;;;21.90;99924.00;;;;2048375;28;20219;-60
2024/03/12 03:31:59;;;;;;;9.65;6.80;;;;;21.90;99928.00;;;;2048439;28;20234;-59
2024/03/12 03:33:00;;;;;;;9.80;6.70;;;;;21.90;99936.00;;;;2045449;28;20227;-62
2024/03/12 03:34:04;;;;;;;9.37;6.70;;;;;21.90;99928.00;;;;2051977;28;20229;-58
2024/03/12 03:35:08;;;;;;;8.65;6.22;;;;;21.90;99932.00;;;;2052636;28;20298;-59
2024/03/12 03:36:08;;;;;;;10.93;6.47;;;;;21.90;99932.00;;;;2053594;28;20220;-58
2024/03/12 03:37:09;;;;;;;10.50;6.50;;;;;21.90;99934.00;;;;2048381;28;20793;-59
2024/03/12 03:38:09;;;;;;;8.40;6.07;;;;;21.80;99930.00;;;;2053149;28;20645;-63
2024/03/12 03:39:10;;;;;;;9.37;6.80;;;;;21.90;99926.00;;;;2044284;28;20466;-63
2024/03/12 03:40:17;;;;;;;8.68;5.90;;;;;21.90;99932.00;;;;2044941;28;20218;-57
2024/03/12 03:41:17;;;;;;;8.85;6.80;;;;;21.90;99943.00;;;;2045862;28;20219;-59
2024/03/12 03:42:18;;;;;;;9.30;6.57;;;;;21.80;99930.00;;;;2051854;28;20219;-59
2024/03/12 03:43:18;;;;;;;9.07;6.47;;;;;21.80;99937.00;;;;2044146;28;20227;-59
2024/03/12 03:44:18;;;;;;;8.90;6.67;;;;;21.80;99912.00;;;;2036967;28;20204;-57
2024/03/12 03:45:19;;;;;;;9.47;6.23;;;;;21.80;99938.00;;;;2037055;29;20458;-59
2024/03/12 03:46:19;;;;;;;8.60;6.33;;;;;21.90;99936.00;;;;2052618;28;22365;-56
2024/03/12 03:47:20;;;;;;;9.60;6.20;;;;;21.80;99951.00;;;;2066058;28;20834;-59
2024/03/12 03:48:20;;;;;;;9.50;6.90;;;;;21.90;99937.00;;;;2059033;28;20806;-59
2024/03/12 03:49:21;;;;;;;11.07;7.67;;;;;21.80;99943.00;;;;2040339;28;20207;-57
2024/03/12 03:50:22;;;;;;;10.33;6.53;;;;;21.80;99946.00;;;;2058278;28;20234;-57
2024/03/12 03:51:22;;;;;;;9.80;6.80;;;;;21.80;99946.00;;;;2056228;28;20982;-59
2024/03/12 03:52:23;;;;;;;9.83;6.27;;;;;21.80;99947.00;;;;2059267;28;20206;-59
2024/03/12 03:53:23;;;;;;;9.57;6.80;;;;;21.80;99949.00;;;;2058909;28;20450;-60
2024/03/12 03:54:24;;;;;;;10.30;6.57;;;;;21.80;99942.00;;;;2042569;28;20235;-64
2024/03/12 03:55:24;;;;;;;10.47;6.60;;;;;21.90;99951.00;;;;2049984;28;20259;-62
2024/03/12 03:56:26;;;;;;;10.87;7.13;;;;;21.80;99952.00;;;;2062454;28;20222;-59
2024/03/12 03:57:27;;;;;;;8.98;6.63;;;;;21.80;99941.00;;;;2050435;28;20207;-59
2024/03/12 03:58:29;;;;;;;10.07;7.18;;;;;21.80;99921.00;;;;2038732;28;20780;-64
2024/03/12 03:59:31;;;;;;;8.18;6.28;;;;;21.80;99974.00;;;;2032541;28;20369;-63
2024/03/12 04:00:33;;;;;;;8.18;6.43;;;;;21.80;99953.00;;;;2041708;28;20275;-58
2024/03/12 04:01:33;;;;;;;9.98;6.88;;;;;21.80;99961.00;;;;2050103;28;20599;-58
2024/03/12 04:02:34;;;;;;;9.00;6.53;;;;;21.80;99963.00;;;;2049942;28;20303;-58
2024/03/12 04:03:34;;;;;;;8.00;6.37;;;;;21.30;99934.00;;;;2048252;28;20227;-57
2024/03/12 04:04:34;;;;;;;8.60;6.47;;;;;21.80;99962.00;;;;2036743;28;20232;-62
2024/03/12 04:05:35;;;;;;;8.03;6.20;;;;;21.80;99964.00;;;;2051849;28;20215;-58
2024/03/12 04:06:35;;;;;;;8.17;6.10;;;;;21.80;99967.00;;;;2050167;28;20574;-58
2024/03/12 04:07:36;;;;;;;8.60;6.40;;;;;21.80;99971.00;;;;2049002;28;20273;-58
2024/03/12 04:08:36;;;;;;;8.03;6.50;;;;;21.80;99978.00;;;;2049744;28;20224;-58
2024/03/12 04:09:37;;;;;;;11.47;7.10;;;;;21.80;99974.00;;;;2038622;28;20226;-59
2024/03/12 04:10:37;;;;;;;8.57;6.55;;;;;21.80;99971.00;;;;2052504;28;20231;-58
2024/03/12 04:11:38;;;;;;;7.70;6.20;;;;;21.80;99975.00;;;;2049833;28;20224;-59
2024/03/12 04:12:41;;;;;;;10.40;6.30;;;;;21.80;99968.00;;;;2043067;28;20236;-58
2024/03/12 04:13:42;;;;;;;9.43;6.45;;;;;21.80;99981.00;;;;2056095;28;20223;-58
2024/03/12 04:14:42;;;;;;;8.55;6.88;;;;;21.80;99986.00;;;;2038125;28;20307;-58
2024/03/12 04:15:43;;;;;;;10.30;7.20;;;;;21.80;99982.00;;;;2047364;28;20284;-59
2024/03/12 04:16:43;;;;;;;7.77;5.10;;;;;21.80;99985.00;;;;2048762;28;20220;-58
2024/03/12 04:17:43;;;;;;;7.20;5.67;;;;;21.80;99986.00;;;;2049980;28;20220;-59
2024/03/12 04:18:44;;;;;;;8.27;6.20;;;;;21.80;99984.00;;;;2047418;28;20684;-59
2024/03/12 04:19:47;;;;;;;8.00;5.50;;;;;21.80;99980.00;;;;2044804;28;20219;-58
2024/03/12 04:20:47;;;;;;;8.63;5.85;;;;;21.80;99995.00;;;;2056066;28;20643;-64
2024/03/12 04:21:48;;;;;;;9.77;6.20;;;;;21.80;99992.00;;;;2041297;28;20239;-60
2024/03/12 04:22:49;;;;;;;9.90;6.40;;;;;21.80;99994.00;;;;2053275;28;20224;-57
2024/03/12 04:23:50;;;;;;;8.27;5.90;;;;;21.80;99996.00;;;;2048438;28;20238;-58
2024/03/12 04:24:50;;;;;;;7.97;5.77;;;;;21.80;99997.00;;;;2047018;28;20485;-58
2024/03/12 04:25:51;;;;;;;7.57;5.33;;;;;21.70;99995.00;;;;2053591;28;20247;-58
2024/03/12 04:26:52;;;;;;;8.00;5.80;;;;;21.80;99998.00;;;;2046694;28;20299;-59
2024/03/12 04:27:53;;;;;;;8.63;5.78;;;;;21.70;99999.00;;;;2044630;28;20278;-58
2024/03/12 04:28:53;;;;;;;7.90;6.00;;;;;21.70;100004.00;;;;2048530;28;20221;-61
2024/03/12 04:29:54;;;;;;;6.73;5.43;;;;;21.70;100004.00;;;;2056453;28;20215;-63
2024/03/12 04:30:54;;;;;;;12.53;6.20;;;;;21.80;100000.00;;;;2062057;28;20269;-62
2024/03/12 04:31:55;;;;;;;8.37;6.10;;;;;21.80;100003.00;;;;2050376;28;20258;-59
2024/03/12 04:32:56;;;;;;;7.67;5.43;;;;;21.80;99988.00;;;;2047980;28;20255;-59
2024/03/12 04:33:56;;;;;;;7.53;5.95;;;;;21.80;99999.00;;;;2049541;28;20594;-63
2024/03/12 04:34:57;;;;;;;8.50;5.70;;;;;21.70;100005.00;;;;2037027;28;20276;-59
2024/03/12 04:35:57;;;;;;;6.80;5.33;;;;;21.70;100001.00;;;;2035639;29;20240;-59
2024/03/12 04:36:58;;;;;;;6.97;5.20;;;;;21.70;100010.00;;;;2042776;28;20252;-60
2024/03/12 04:37:59;;;;;;;7.00;5.47;;;;;21.70;100006.00;;;;2049594;28;20243;-59
2024/03/12 04:39:00;;;;;;;6.72;5.43;;;;;21.80;100008.00;;;;2054713;28;20469;-59
2024/03/12 04:40:01;;;;;;;7.80;5.53;;;;;21.80;100011.00;;;;2036085;28;20359;-58
2024/03/12 04:41:01;;;;;;;7.13;5.70;;;;;21.80;100009.00;;;;2047933;28;20235;-59
2024/03/12 04:42:04;;;;;;;7.80;6.10;;;;;21.70;99999.00;;;;2047657;28;20327;-59
2024/03/12 04:43:05;;;;;;;6.70;5.25;;;;;21.70;100007.00;;;;2053632;28;20615;-59
2024/03/12 04:44:05;;;;;;;7.03;5.13;;;;;21.70;100001.00;;;;2045872;28;20322;-59
2024/03/12 04:45:08;;;;;;;8.25;5.57;;;;;21.70;100005.00;;;;2059269;28;20226;-58
2024/03/12 04:46:09;;;;;;;6.30;5.30;;;;;21.70;100006.00;;;;2057824;28;20227;-57
2024/03/12 04:47:09;;;;;;;8.25;5.28;;;;;21.70;100010.00;;;;2042804;28;20216;-58
2024/03/12 04:48:11;;;;;;;6.27;4.70;;;;;21.70;100016.00;;;;2044206;28;20252;-58
2024/03/12 04:49:11;;;;;;;6.65;5.15;;;;;21.70;100006.00;;;;2033253;28;20294;-59
2024/03/12 04:50:14;;;;;;;6.27;5.00;;;;;21.70;100016.00;;;;2052032;28;20223;-58
2024/03/12 04:51:14;;;;;;;8.10;5.45;;;;;21.70;100025.00;;;;2055999;28;20594;-58
2024/03/12 04:52:15;;;;;;;7.77;5.03;;;;;21.70;100018.00;;;;2051432;28;20223;-58
2024/03/12 04:53:16;;;;;;;7.55;5.88;;;;;21.70;100020.00;;;;2052035;28;20746;-59
2024/03/12 04:54:18;;;;;;;7.10;5.17;;;;;21.70;100024.00;;;;2041480;28;20345;-58
2024/03/12 04:55:18;;;;;;;6.65;4.95;;;;;21.70;100016.00;;;;2046263;28;20591;-59
2024/03/12 04:56:19;;;;;;;7.97;5.63;;;;;21.70;100023.00;;;;2044834;28;20220;-58
2024/03/12 04:57:19;;;;;;;7.33;5.13;;;;;21.70;100032.00;;;;2051985;28;20338;-58
2024/03/12 04:58:20;;;;;;;6.40;4.93;;;;;21.70;100028.00;;;;2046838;28;20224;-58
2024/03/12 04:59:21;;;;;;;6.40;4.90;;;;;21.70;100031.00;;;;2042392;28;20219;-59
2024/03/12 05:00:21;;;;;;;7.68;5.57;;;;;21.10;100035.00;;;;2051622;28;21292;-58
2024/03/12 05:01:22;;;;;;;7.60;5.03;;;;;21.70;100035.00;;;;2051770;28;20226;-58
2024/03/12 05:02:22;;;;;;;7.37;5.37;;;;;21.70;100037.00;;;;2052388;28;20239;-58